sensor_id;sensor_type;location;lat;lon;timestamp;P1;durP1;ratioP1;P2;durP2;ratioP2
54201;SDS011;40108;53.152;5.844;2023-07-20T04:32:00;5.78;;;3.58;;
54201;SDS011;40108;53.152;5.844;2023-07-20T04:38:06;4.57;;;4.07;;
54201;SDS011;40108;53.152;5.844;2023-07-20T04:40:32;4.97;;;3.38;;
54201;SDS011;40108;53.152;5.844;2023-07-20T04:42:58;4.63;;;3.65;;
54201;SDS011;40108;53.152;5.844;2023-07-20T04:45:24;4.82;;;4.18;;
54201;SDS011;40108;53.152;5.844;2023-07-20T04:47:49;4.22;;;3.63;;
54201;SDS011;40108;53.152;5.844;2023-07-20T04:50:18;4.57;;;3.50;;
54201;SDS011;40108;53.152;5.844;2023-07-20T04:52:49;4.70;;;4.07;;
54201;SDS011;40108;53.152;5.844;2023-07-20T04:55:30;4.15;;;3.65;;
54201;SDS011;40108;53.152;5.844;2023-07-20T05:39:14;8.65;;;3.25;;
54201;SDS011;40108;53.152;5.844;2023-07-20T05:52:44;6.13;;;2.83;;
54201;SDS011;40108;53.152;5.844;2023-07-20T05:55:10;7.18;;;3.03;;
54201;SDS011;40108;53.152;5.844;2023-07-20T06:08:26;6.82;;;2.00;;
54201;SDS011;40108;53.152;5.844;2023-07-20T06:10:52;5.32;;;2.15;;
54201;SDS011;40108;53.152;5.844;2023-07-20T06:13:18;7.15;;;1.98;;
54201;SDS011;40108;53.152;5.844;2023-07-20T06:15:46;5.57;;;2.00;;
54201;SDS011;40108;53.152;5.844;2023-07-20T06:18:13;6.65;;;1.80;;
54201;SDS011;40108;53.152;5.844;2023-07-20T06:20:42;13.45;;;2.00;;
54201;SDS011;40108;53.152;5.844;2023-07-20T06:26:24;4.10;;;1.48;;
54201;SDS011;40108;53.152;5.844;2023-07-20T06:32:59;6.05;;;0.93;;
54201;SDS011;40108;53.152;5.844;2023-07-20T06:48:32;2.70;;;0.93;;
54201;SDS011;40108;53.152;5.844;2023-07-20T06:51:00;6.93;;;1.30;;
54201;SDS011;40108;53.152;5.844;2023-07-20T06:53:26;5.53;;;1.10;;
54201;SDS011;40108;53.152;5.844;2023-07-20T06:55:54;5.97;;;1.20;;
54201;SDS011;40108;53.152;5.844;2023-07-20T06:58:25;3.75;;;1.13;;
54201;SDS011;40108;53.152;5.844;2023-07-20T07:00:51;4.50;;;1.00;;
54201;SDS011;40108;53.152;5.844;2023-07-20T07:03:17;3.92;;;1.23;;
54201;SDS011;40108;53.152;5.844;2023-07-20T07:05:43;3.53;;;1.52;;
54201;SDS011;40108;53.152;5.844;2023-07-20T07:08:11;3.33;;;1.70;;
54201;SDS011;40108;53.152;5.844;2023-07-20T07:10:38;6.72;;;2.00;;
54201;SDS011;40108;53.152;5.844;2023-07-20T07:13:04;4.18;;;1.85;;
54201;SDS011;40108;53.152;5.844;2023-07-20T07:15:32;5.10;;;1.90;;
54201;SDS011;40108;53.152;5.844;2023-07-20T07:17:57;6.05;;;1.90;;
54201;SDS011;40108;53.152;5.844;2023-07-20T07:20:26;4.43;;;1.70;;
54201;SDS011;40108;53.152;5.844;2023-07-20T07:22:52;5.10;;;1.80;;
54201;SDS011;40108;53.152;5.844;2023-07-20T07:25:19;3.45;;;1.70;;
54201;SDS011;40108;53.152;5.844;2023-07-20T07:27:47;3.28;;;1.73;;
54201;SDS011;40108;53.152;5.844;2023-07-20T07:30:13;6.15;;;2.10;;
54201;SDS011;40108;53.152;5.844;2023-07-20T07:32:50;4.53;;;1.50;;
54201;SDS011;40108;53.152;5.844;2023-07-20T07:35:17;4.50;;;1.70;;
54201;SDS011;40108;53.152;5.844;2023-07-20T07:37:45;4.55;;;1.60;;
54201;SDS011;40108;53.152;5.844;2023-07-20T07:40:16;3.53;;;1.38;;
54201;SDS011;40108;53.152;5.844;2023-07-20T07:42:44;4.22;;;1.42;;
54201;SDS011;40108;53.152;5.844;2023-07-20T07:45:10;4.75;;;1.42;;
54201;SDS011;40108;53.152;5.844;2023-07-20T07:47:36;3.08;;;1.58;;
54201;SDS011;40108;53.152;5.844;2023-07-20T07:50:02;5.85;;;1.83;;
54201;SDS011;40108;53.152;5.844;2023-07-20T07:52:28;3.78;;;1.50;;
54201;SDS011;40108;53.152;5.844;2023-07-20T07:54:54;4.82;;;1.50;;
54201;SDS011;40108;53.152;5.844;2023-07-20T07:57:19;2.65;;;1.80;;
54201;SDS011;40108;53.152;5.844;2023-07-20T07:59:45;4.55;;;1.45;;
54201;SDS011;40108;53.152;5.844;2023-07-20T08:02:13;2.40;;;1.70;;
54201;SDS011;40108;53.152;5.844;2023-07-20T08:05:18;3.45;;;1.90;;
54201;SDS011;40108;53.152;5.844;2023-07-20T08:07:44;6.95;;;2.03;;
54201;SDS011;40108;53.152;5.844;2023-07-20T08:10:10;4.78;;;1.80;;
54201;SDS011;40108;53.152;5.844;2023-07-20T08:12:36;5.05;;;2.05;;
54201;SDS011;40108;53.152;5.844;2023-07-20T08:15:02;7.32;;;2.20;;
54201;SDS011;40108;53.152;5.844;2023-07-20T08:17:30;4.22;;;2.10;;
54201;SDS011;40108;53.152;5.844;2023-07-20T08:19:55;6.90;;;2.25;;
54201;SDS011;40108;53.152;5.844;2023-07-20T08:22:29;5.20;;;2.15;;
54201;SDS011;40108;53.152;5.844;2023-07-20T08:24:55;6.40;;;1.85;;
54201;SDS011;40108;53.152;5.844;2023-07-20T08:27:25;6.25;;;1.50;;
54201;SDS011;40108;53.152;5.844;2023-07-20T08:29:54;6.05;;;1.77;;
54201;SDS011;40108;53.152;5.844;2023-07-20T08:32:22;3.35;;;1.60;;
54201;SDS011;40108;53.152;5.844;2023-07-20T08:34:50;4.63;;;1.60;;
54201;SDS011;40108;53.152;5.844;2023-07-20T08:37:16;8.07;;;2.03;;
54201;SDS011;40108;53.152;5.844;2023-07-20T08:39:44;8.70;;;1.88;;
54201;SDS011;40108;53.152;5.844;2023-07-20T08:42:13;4.60;;;1.80;;
54201;SDS011;40108;53.152;5.844;2023-07-20T08:44:41;9.85;;;2.00;;
54201;SDS011;40108;53.152;5.844;2023-07-20T08:47:13;4.03;;;2.15;;
54201;SDS011;40108;53.152;5.844;2023-07-20T08:49:41;4.75;;;1.90;;
54201;SDS011;40108;53.152;5.844;2023-07-20T08:52:07;5.88;;;1.77;;
54201;SDS011;40108;53.152;5.844;2023-07-20T08:54:36;3.53;;;1.40;;
54201;SDS011;40108;53.152;5.844;2023-07-20T08:57:05;4.32;;;1.70;;
54201;SDS011;40108;53.152;5.844;2023-07-20T08:59:34;8.35;;;2.00;;
54201;SDS011;40108;53.152;5.844;2023-07-20T09:02:15;4.70;;;1.27;;
54201;SDS011;40108;53.152;5.844;2023-07-20T09:04:44;2.67;;;1.52;;
54201;SDS011;40108;53.152;5.844;2023-07-20T09:07:21;3.33;;;1.40;;
54201;SDS011;40108;53.152;5.844;2023-07-20T09:09:47;2.55;;;1.30;;
54201;SDS011;40108;53.152;5.844;2023-07-20T09:12:18;7.47;;;1.40;;
54201;SDS011;40108;53.152;5.844;2023-07-20T09:14:44;7.68;;;1.50;;
54201;SDS011;40108;53.152;5.844;2023-07-20T09:17:15;7.32;;;1.40;;
54201;SDS011;40108;53.152;5.844;2023-07-20T09:19:45;3.38;;;1.40;;
54201;SDS011;40108;53.152;5.844;2023-07-20T09:22:12;6.25;;;1.50;;
54201;SDS011;40108;53.152;5.844;2023-07-20T09:24:38;5.57;;;1.40;;
54201;SDS011;40108;53.152;5.844;2023-07-20T09:27:07;8.60;;;1.42;;
54201;SDS011;40108;53.152;5.844;2023-07-20T09:29:49;3.90;;;1.17;;
54201;SDS011;40108;53.152;5.844;2023-07-20T09:32:21;4.25;;;1.52;;
54201;SDS011;40108;53.152;5.844;2023-07-20T09:34:47;3.30;;;1.10;;
54201;SDS011;40108;53.152;5.844;2023-07-20T09:37:19;3.70;;;1.30;;
54201;SDS011;40108;53.152;5.844;2023-07-20T09:39:48;2.35;;;1.10;;
54201;SDS011;40108;53.152;5.844;2023-07-20T09:42:22;5.77;;;1.33;;
54201;SDS011;40108;53.152;5.844;2023-07-20T09:45:49;4.43;;;1.27;;
54201;SDS011;40108;53.152;5.844;2023-07-20T09:48:15;5.55;;;1.45;;
54201;SDS011;40108;53.152;5.844;2023-07-20T09:50:50;3.13;;;1.50;;
54201;SDS011;40108;53.152;5.844;2023-07-20T09:53:16;3.97;;;1.40;;
54201;SDS011;40108;53.152;5.844;2023-07-20T09:55:45;4.18;;;1.52;;
54201;SDS011;40108;53.152;5.844;2023-07-20T09:58:15;6.47;;;1.63;;
54201;SDS011;40108;53.152;5.844;2023-07-20T10:00:44;7.93;;;1.50;;
54201;SDS011;40108;53.152;5.844;2023-07-20T10:03:21;3.33;;;1.38;;
54201;SDS011;40108;53.152;5.844;2023-07-20T10:06:33;1.92;;;1.10;;
54201;SDS011;40108;53.152;5.844;2023-07-20T10:27:26;3.75;;;1.60;;
54201;SDS011;40108;53.152;5.844;2023-07-20T10:38:09;2.92;;;1.17;;
54201;SDS011;40108;53.152;5.844;2023-07-20T10:40:38;3.38;;;1.20;;
54201;SDS011;40108;53.152;5.844;2023-07-20T10:43:08;2.95;;;1.27;;
54201;SDS011;40108;53.152;5.844;2023-07-20T10:45:40;5.00;;;1.13;;
54201;SDS011;40108;53.152;5.844;2023-07-20T11:11:38;3.55;;;1.55;;
54201;SDS011;40108;53.152;5.844;2023-07-20T11:14:06;6.00;;;1.60;;
54201;SDS011;40108;53.152;5.844;2023-07-20T11:19:18;4.18;;;1.80;;
54201;SDS011;40108;53.152;5.844;2023-07-20T11:21:46;4.53;;;1.90;;
54201;SDS011;40108;53.152;5.844;2023-07-20T11:24:15;16.90;;;2.83;;
54201;SDS011;40108;53.152;5.844;2023-07-20T11:26:46;4.32;;;1.40;;
54201;SDS011;40108;53.152;5.844;2023-07-20T11:29:13;4.15;;;1.23;;
54201;SDS011;40108;53.152;5.844;2023-07-20T11:31:40;9.70;;;1.50;;
54201;SDS011;40108;53.152;5.844;2023-07-20T11:34:17;4.65;;;1.40;;
54201;SDS011;40108;53.152;5.844;2023-07-20T11:36:49;3.67;;;1.25;;
54201;SDS011;40108;53.152;5.844;2023-07-20T11:39:18;8.05;;;1.90;;
54201;SDS011;40108;53.152;5.844;2023-07-20T11:41:54;2.65;;;1.20;;
54201;SDS011;40108;53.152;5.844;2023-07-20T11:44:24;3.58;;;1.35;;
54201;SDS011;40108;53.152;5.844;2023-07-20T11:50:38;4.38;;;1.15;;
54201;SDS011;40108;53.152;5.844;2023-07-20T11:53:07;2.85;;;1.30;;
54201;SDS011;40108;53.152;5.844;2023-07-20T11:55:34;5.82;;;1.58;;
54201;SDS011;40108;53.152;5.844;2023-07-20T11:58:03;4.15;;;1.52;;
54201;SDS011;40108;53.152;5.844;2023-07-20T12:00:30;5.22;;;1.50;;
54201;SDS011;40108;53.152;5.844;2023-07-20T12:02:56;4.50;;;1.20;;
54201;SDS011;40108;53.152;5.844;2023-07-20T12:05:22;4.25;;;1.20;;
54201;SDS011;40108;53.152;5.844;2023-07-20T12:07:48;3.50;;;1.30;;
54201;SDS011;40108;53.152;5.844;2023-07-20T12:10:22;4.95;;;1.25;;
54201;SDS011;40108;53.152;5.844;2023-07-20T12:12:50;3.38;;;1.30;;
54201;SDS011;40108;53.152;5.844;2023-07-20T12:15:16;3.97;;;1.42;;
54201;SDS011;40108;53.152;5.844;2023-07-20T12:17:55;2.67;;;1.42;;
54201;SDS011;40108;53.152;5.844;2023-07-20T12:20:29;4.75;;;1.60;;
54201;SDS011;40108;53.152;5.844;2023-07-20T12:23:08;3.47;;;1.27;;
54201;SDS011;40108;53.152;5.844;2023-07-20T12:25:42;1.95;;;1.42;;
54201;SDS011;40108;53.152;5.844;2023-07-20T12:28:12;1.88;;;1.35;;
54201;SDS011;40108;53.152;5.844;2023-07-20T12:30:47;2.55;;;1.17;;
54201;SDS011;40108;53.152;5.844;2023-07-20T12:33:38;2.58;;;1.30;;
54201;SDS011;40108;53.152;5.844;2023-07-20T12:36:04;1.90;;;1.10;;
54201;SDS011;40108;53.152;5.844;2023-07-20T12:38:44;1.80;;;1.10;;
54201;SDS011;40108;53.152;5.844;2023-07-20T12:41:12;4.38;;;1.20;;
54201;SDS011;40108;53.152;5.844;2023-07-20T12:43:45;3.10;;;1.27;;
54201;SDS011;40108;53.152;5.844;2023-07-20T12:46:11;1.95;;;1.20;;
54201;SDS011;40108;53.152;5.844;2023-07-20T12:48:38;2.72;;;1.10;;
54201;SDS011;40108;53.152;5.844;2023-07-20T12:51:06;2.38;;;1.48;;
54201;SDS011;40108;53.152;5.844;2023-07-20T12:53:33;3.28;;;1.10;;
54201;SDS011;40108;53.152;5.844;2023-07-20T12:55:59;3.88;;;0.98;;
54201;SDS011;40108;53.152;5.844;2023-07-20T12:58:28;2.85;;;1.40;;
54201;SDS011;40108;53.152;5.844;2023-07-20T13:00:53;3.28;;;1.40;;
54201;SDS011;40108;53.152;5.844;2023-07-20T13:03:19;1.90;;;1.20;;
54201;SDS011;40108;53.152;5.844;2023-07-20T13:05:46;2.38;;;0.90;;
54201;SDS011;40108;53.152;5.844;2023-07-20T13:08:12;2.83;;;1.00;;
54201;SDS011;40108;53.152;5.844;2023-07-20T13:10:41;3.25;;;1.30;;
54201;SDS011;40108;53.152;5.844;2023-07-20T13:13:10;6.88;;;1.65;;
54201;SDS011;40108;53.152;5.844;2023-07-20T13:15:42;3.38;;;1.55;;
54201;SDS011;40108;53.152;5.844;2023-07-20T13:18:09;2.40;;;1.10;;
54201;SDS011;40108;53.152;5.844;2023-07-20T13:20:38;5.03;;;1.08;;
54201;SDS011;40108;53.152;5.844;2023-07-20T13:23:04;2.72;;;1.00;;
54201;SDS011;40108;53.152;5.844;2023-07-20T13:25:30;2.15;;;0.93;;
54201;SDS011;40108;53.152;5.844;2023-07-20T13:27:56;1.60;;;1.00;;
54201;SDS011;40108;53.152;5.844;2023-07-20T13:30:25;1.33;;;0.85;;
54201;SDS011;40108;53.152;5.844;2023-07-20T13:33:10;2.65;;;0.82;;
54201;SDS011;40108;53.152;5.844;2023-07-20T13:35:35;3.58;;;1.17;;
54201;SDS011;40108;53.152;5.844;2023-07-20T13:38:01;2.03;;;1.00;;
54201;SDS011;40108;53.152;5.844;2023-07-20T13:40:27;2.30;;;1.00;;
54201;SDS011;40108;53.152;5.844;2023-07-20T13:42:53;2.67;;;0.90;;
54201;SDS011;40108;53.152;5.844;2023-07-20T13:45:23;1.00;;;0.90;;
54201;SDS011;40108;53.152;5.844;2023-07-20T13:47:51;1.35;;;0.80;;
54201;SDS011;40108;53.152;5.844;2023-07-20T13:50:23;1.05;;;0.70;;
54201;SDS011;40108;53.152;5.844;2023-07-20T13:57:27;4.63;;;1.10;;
54201;SDS011;40108;53.152;5.844;2023-07-20T14:02:40;3.45;;;1.35;;
54201;SDS011;40108;53.152;5.844;2023-07-20T14:05:08;3.85;;;1.10;;
54201;SDS011;40108;53.152;5.844;2023-07-20T14:07:45;1.20;;;1.10;;
54201;SDS011;40108;53.152;5.844;2023-07-20T14:10:13;4.40;;;1.40;;
54201;SDS011;40108;53.152;5.844;2023-07-20T14:12:38;2.72;;;1.02;;
54201;SDS011;40108;53.152;5.844;2023-07-20T14:15:09;1.87;;;1.27;;
54201;SDS011;40108;53.152;5.844;2023-07-20T14:17:38;5.53;;;1.30;;
54201;SDS011;40108;53.152;5.844;2023-07-20T14:20:07;2.60;;;1.13;;
54201;SDS011;40108;53.152;5.844;2023-07-20T14:22:43;3.88;;;1.40;;
54201;SDS011;40108;53.152;5.844;2023-07-20T14:25:09;4.32;;;1.20;;
54201;SDS011;40108;53.152;5.844;2023-07-20T14:27:43;2.13;;;1.30;;
54201;SDS011;40108;53.152;5.844;2023-07-20T14:30:11;2.33;;;1.50;;
54201;SDS011;40108;53.152;5.844;2023-07-20T14:32:40;4.25;;;1.48;;
54201;SDS011;40108;53.152;5.844;2023-07-20T14:35:15;2.13;;;1.20;;
54201;SDS011;40108;53.152;5.844;2023-07-20T14:37:44;2.72;;;1.30;;
54201;SDS011;40108;53.152;5.844;2023-07-20T14:40:12;5.25;;;1.70;;
54201;SDS011;40108;53.152;5.844;2023-07-20T14:42:38;2.85;;;1.48;;
54201;SDS011;40108;53.152;5.844;2023-07-20T14:45:04;3.88;;;1.20;;
54201;SDS011;40108;53.152;5.844;2023-07-20T14:47:34;5.88;;;1.50;;
54201;SDS011;40108;53.152;5.844;2023-07-20T14:50:00;1.67;;;1.08;;
54201;SDS011;40108;53.152;5.844;2023-07-20T14:52:32;2.75;;;1.00;;
54201;SDS011;40108;53.152;5.844;2023-07-20T14:54:58;2.60;;;1.15;;
54201;SDS011;40108;53.152;5.844;2023-07-20T14:57:25;2.30;;;1.00;;
54201;SDS011;40108;53.152;5.844;2023-07-20T14:59:51;3.25;;;1.45;;
54201;SDS011;40108;53.152;5.844;2023-07-20T15:02:20;2.70;;;1.40;;
54201;SDS011;40108;53.152;5.844;2023-07-20T15:04:51;4.65;;;1.73;;
54201;SDS011;40108;53.152;5.844;2023-07-20T15:07:18;4.35;;;1.50;;
54201;SDS011;40108;53.152;5.844;2023-07-20T15:09:45;3.78;;;1.50;;
54201;SDS011;40108;53.152;5.844;2023-07-20T15:12:11;2.78;;;1.30;;
54201;SDS011;40108;53.152;5.844;2023-07-20T15:14:39;2.55;;;1.17;;
54201;SDS011;40108;53.152;5.844;2023-07-20T15:17:08;2.33;;;1.33;;
54201;SDS011;40108;53.152;5.844;2023-07-20T15:19:34;1.58;;;1.30;;
54201;SDS011;40108;53.152;5.844;2023-07-20T15:22:01;4.90;;;2.08;;
54201;SDS011;40108;53.152;5.844;2023-07-20T15:24:31;3.72;;;1.30;;
54201;SDS011;40108;53.152;5.844;2023-07-20T15:26:57;3.47;;;1.45;;
54201;SDS011;40108;53.152;5.844;2023-07-20T15:29:23;2.10;;;1.42;;
54201;SDS011;40108;53.152;5.844;2023-07-20T15:31:51;3.20;;;1.60;;
54201;SDS011;40108;53.152;5.844;2023-07-20T15:34:17;2.95;;;1.60;;
54201;SDS011;40108;53.152;5.844;2023-07-20T15:36:43;2.85;;;1.15;;
54201;SDS011;40108;53.152;5.844;2023-07-20T15:39:09;4.07;;;1.30;;
54201;SDS011;40108;53.152;5.844;2023-07-20T15:41:36;5.65;;;1.50;;
54201;SDS011;40108;53.152;5.844;2023-07-20T15:44:05;3.45;;;1.15;;
54201;SDS011;40108;53.152;5.844;2023-07-20T15:49:06;2.47;;;1.08;;
54201;SDS011;40108;53.152;5.844;2023-07-20T15:51:32;2.50;;;1.10;;
54201;SDS011;40108;53.152;5.844;2023-07-20T15:54:01;3.60;;;1.05;;
54201;SDS011;40108;53.152;5.844;2023-07-20T15:56:33;2.63;;;1.30;;
54201;SDS011;40108;53.152;5.844;2023-07-20T15:58:59;2.92;;;1.38;;
54201;SDS011;40108;53.152;5.844;2023-07-20T16:01:25;3.75;;;1.42;;
54201;SDS011;40108;53.152;5.844;2023-07-20T16:03:53;3.00;;;1.45;;
54201;SDS011;40108;53.152;5.844;2023-07-20T16:06:22;3.40;;;1.40;;
54201;SDS011;40108;53.152;5.844;2023-07-20T16:08:47;1.95;;;1.25;;
54201;SDS011;40108;53.152;5.844;2023-07-20T16:11:17;6.45;;;1.40;;
54201;SDS011;40108;53.152;5.844;2023-07-20T16:13:46;2.75;;;1.17;;
54201;SDS011;40108;53.152;5.844;2023-07-20T16:16:21;3.85;;;1.10;;
54201;SDS011;40108;53.152;5.844;2023-07-20T16:18:50;2.30;;;1.13;;
54201;SDS011;40108;53.152;5.844;2023-07-20T16:21:19;2.10;;;1.00;;
54201;SDS011;40108;53.152;5.844;2023-07-20T16:23:46;1.73;;;1.00;;
54201;SDS011;40108;53.152;5.844;2023-07-20T16:26:12;2.15;;;1.20;;
54201;SDS011;40108;53.152;5.844;2023-07-20T16:28:39;2.13;;;1.10;;
54201;SDS011;40108;53.152;5.844;2023-07-20T16:31:08;4.78;;;1.20;;
54201;SDS011;40108;53.152;5.844;2023-07-20T16:33:47;1.92;;;1.00;;
54201;SDS011;40108;53.152;5.844;2023-07-20T16:36:14;1.92;;;1.10;;
54201;SDS011;40108;53.152;5.844;2023-07-20T16:38:40;4.43;;;2.10;;
54201;SDS011;40108;53.152;5.844;2023-07-20T16:41:07;3.88;;;2.40;;
54201;SDS011;40108;53.152;5.844;2023-07-20T16:43:34;2.25;;;1.40;;
54201;SDS011;40108;53.152;5.844;2023-07-20T16:46:01;2.47;;;0.98;;
54201;SDS011;40108;53.152;5.844;2023-07-20T16:48:30;3.83;;;1.40;;
54201;SDS011;40108;53.152;5.844;2023-07-20T16:50:56;2.85;;;1.30;;
54201;SDS011;40108;53.152;5.844;2023-07-20T16:53:25;2.25;;;1.20;;
54201;SDS011;40108;53.152;5.844;2023-07-20T16:55:52;2.90;;;0.90;;
54201;SDS011;40108;53.152;5.844;2023-07-20T17:02:08;3.05;;;1.25;;
54201;SDS011;40108;53.152;5.844;2023-07-20T17:08:07;2.17;;;0.88;;
54201;SDS011;40108;53.152;5.844;2023-07-20T17:10:32;3.17;;;1.13;;
54201;SDS011;40108;53.152;5.844;2023-07-20T17:12:58;2.67;;;0.77;;
54201;SDS011;40108;53.152;5.844;2023-07-20T17:15:24;1.45;;;0.90;;
54201;SDS011;40108;53.152;5.844;2023-07-20T17:17:50;3.05;;;1.08;;
54201;SDS011;40108;53.152;5.844;2023-07-20T17:20:19;6.15;;;1.40;;
54201;SDS011;40108;53.152;5.844;2023-07-20T17:22:45;2.80;;;1.10;;
54201;SDS011;40108;53.152;5.844;2023-07-20T17:25:11;3.47;;;0.90;;
54201;SDS011;40108;53.152;5.844;2023-07-20T17:27:38;0.90;;;0.70;;
54201;SDS011;40108;53.152;5.844;2023-07-20T17:30:05;3.75;;;0.93;;
54201;SDS011;40108;53.152;5.844;2023-07-20T17:32:32;2.38;;;0.70;;
54201;SDS011;40108;53.152;5.844;2023-07-20T17:34:57;3.28;;;0.90;;
54201;SDS011;40108;53.152;5.844;2023-07-20T17:37:23;1.95;;;0.90;;
54201;SDS011;40108;53.152;5.844;2023-07-20T17:39:50;3.72;;;0.90;;
54201;SDS011;40108;53.152;5.844;2023-07-20T17:42:17;2.65;;;1.00;;
54201;SDS011;40108;53.152;5.844;2023-07-20T17:44:44;1.90;;;1.00;;
54201;SDS011;40108;53.152;5.844;2023-07-20T17:47:10;1.80;;;0.90;;
54201;SDS011;40108;53.152;5.844;2023-07-20T17:49:36;2.17;;;1.10;;
54201;SDS011;40108;53.152;5.844;2023-07-20T17:52:02;3.35;;;1.15;;
54201;SDS011;40108;53.152;5.844;2023-07-20T17:54:27;1.92;;;0.90;;
54201;SDS011;40108;53.152;5.844;2023-07-20T17:56:53;2.35;;;1.10;;
54201;SDS011;40108;53.152;5.844;2023-07-20T17:59:19;1.98;;;0.90;;
54201;SDS011;40108;53.152;5.844;2023-07-20T18:01:46;2.22;;;1.20;;
54201;SDS011;40108;53.152;5.844;2023-07-20T18:04:11;1.65;;;1.08;;
54201;SDS011;40108;53.152;5.844;2023-07-20T18:06:37;2.03;;;1.00;;
54201;SDS011;40108;53.152;5.844;2023-07-20T18:09:03;2.78;;;1.40;;
54201;SDS011;40108;53.152;5.844;2023-07-20T18:11:29;2.65;;;0.98;;
54201;SDS011;40108;53.152;5.844;2023-07-20T18:13:55;1.67;;;0.98;;
54201;SDS011;40108;53.152;5.844;2023-07-20T18:16:22;1.60;;;0.82;;
54201;SDS011;40108;53.152;5.844;2023-07-20T18:18:48;3.72;;;0.95;;
54201;SDS011;40108;53.152;5.844;2023-07-20T18:21:13;1.58;;;0.80;;
54201;SDS011;40108;53.152;5.844;2023-07-20T18:23:39;1.30;;;0.80;;
54201;SDS011;40108;53.152;5.844;2023-07-20T18:26:05;1.30;;;0.82;;
54201;SDS011;40108;53.152;5.844;2023-07-20T18:28:30;2.90;;;0.70;;
54201;SDS011;40108;53.152;5.844;2023-07-20T18:30:56;2.78;;;0.80;;
54201;SDS011;40108;53.152;5.844;2023-07-20T18:33:22;2.08;;;0.77;;
54201;SDS011;40108;53.152;5.844;2023-07-20T18:35:47;3.65;;;1.00;;
54201;SDS011;40108;53.152;5.844;2023-07-20T18:38:13;1.02;;;0.70;;
54201;SDS011;40108;53.152;5.844;2023-07-20T18:40:39;1.67;;;0.90;;
54201;SDS011;40108;53.152;5.844;2023-07-20T18:43:05;2.30;;;0.70;;
54201;SDS011;40108;53.152;5.844;2023-07-20T18:45:30;4.40;;;0.75;;
54201;SDS011;40108;53.152;5.844;2023-07-20T18:47:56;1.83;;;0.65;;
54201;SDS011;40108;53.152;5.844;2023-07-20T18:50:23;1.63;;;0.70;;
54201;SDS011;40108;53.152;5.844;2023-07-20T18:52:49;0.98;;;0.50;;
54201;SDS011;40108;53.152;5.844;2023-07-20T18:55:16;1.30;;;0.60;;
54201;SDS011;40108;53.152;5.844;2023-07-20T18:57:42;1.00;;;0.65;;
54201;SDS011;40108;53.152;5.844;2023-07-20T19:00:08;3.83;;;0.73;;
54201;SDS011;40108;53.152;5.844;2023-07-20T19:02:35;2.53;;;0.70;;
54201;SDS011;40108;53.152;5.844;2023-07-20T19:05:01;0.88;;;0.63;;
54201;SDS011;40108;53.152;5.844;2023-07-20T19:07:27;2.30;;;0.63;;
54201;SDS011;40108;53.152;5.844;2023-07-20T19:09:53;3.25;;;0.60;;
54201;SDS011;40108;53.152;5.844;2023-07-20T19:12:19;1.73;;;0.40;;
54201;SDS011;40108;53.152;5.844;2023-07-20T19:14:45;1.83;;;0.60;;
54201;SDS011;40108;53.152;5.844;2023-07-20T19:17:11;2.25;;;0.70;;
54201;SDS011;40108;53.152;5.844;2023-07-20T19:19:37;1.50;;;0.57;;
54201;SDS011;40108;53.152;5.844;2023-07-20T19:22:03;2.30;;;1.02;;
54201;SDS011;40108;53.152;5.844;2023-07-20T19:24:28;1.48;;;0.60;;
54201;SDS011;40108;53.152;5.844;2023-07-20T19:26:54;2.45;;;0.60;;
54201;SDS011;40108;53.152;5.844;2023-07-20T19:29:20;0.95;;;0.70;;
54201;SDS011;40108;53.152;5.844;2023-07-20T19:31:46;1.23;;;0.60;;
54201;SDS011;40108;53.152;5.844;2023-07-20T19:34:11;2.33;;;0.60;;
54201;SDS011;40108;53.152;5.844;2023-07-20T19:36:37;2.22;;;0.70;;
54201;SDS011;40108;53.152;5.844;2023-07-20T19:39:03;2.88;;;0.95;;
54201;SDS011;40108;53.152;5.844;2023-07-20T19:41:29;1.15;;;0.70;;
54201;SDS011;40108;53.152;5.844;2023-07-20T19:43:54;2.42;;;0.60;;
54201;SDS011;40108;53.152;5.844;2023-07-20T19:46:20;3.03;;;1.05;;
54201;SDS011;40108;53.152;5.844;2023-07-20T19:48:47;1.50;;;0.50;;
54201;SDS011;40108;53.152;5.844;2023-07-20T19:51:13;2.05;;;0.70;;
54201;SDS011;40108;53.152;5.844;2023-07-20T19:53:38;2.33;;;0.70;;
54201;SDS011;40108;53.152;5.844;2023-07-20T19:56:04;0.82;;;0.68;;
54201;SDS011;40108;53.152;5.844;2023-07-20T19:58:33;1.83;;;0.63;;
54201;SDS011;40108;53.152;5.844;2023-07-20T20:00:59;1.08;;;0.60;;
54201;SDS011;40108;53.152;5.844;2023-07-20T20:03:25;4.60;;;0.70;;
54201;SDS011;40108;53.152;5.844;2023-07-20T20:05:52;3.40;;;0.77;;
54201;SDS011;40108;53.152;5.844;2023-07-20T20:08:18;2.60;;;0.80;;
54201;SDS011;40108;53.152;5.844;2023-07-20T20:10:46;1.60;;;0.68;;
54201;SDS011;40108;53.152;5.844;2023-07-20T20:13:12;1.85;;;0.70;;
54201;SDS011;40108;53.152;5.844;2023-07-20T20:15:41;2.83;;;0.70;;
54201;SDS011;40108;53.152;5.844;2023-07-20T20:18:08;3.85;;;0.90;;
54201;SDS011;40108;53.152;5.844;2023-07-20T20:20:34;2.70;;;0.80;;
54201;SDS011;40108;53.152;5.844;2023-07-20T20:23:01;5.22;;;0.80;;
54201;SDS011;40108;53.152;5.844;2023-07-20T20:25:31;2.40;;;0.93;;
54201;SDS011;40108;53.152;5.844;2023-07-20T20:27:56;3.80;;;1.52;;
54201;SDS011;40108;53.152;5.844;2023-07-20T20:30:22;2.17;;;1.00;;
54201;SDS011;40108;53.152;5.844;2023-07-20T20:32:49;3.25;;;1.10;;
54201;SDS011;40108;53.152;5.844;2023-07-20T20:35:15;4.97;;;1.10;;
54201;SDS011;40108;53.152;5.844;2023-07-20T20:37:41;3.85;;;1.10;;
54201;SDS011;40108;53.152;5.844;2023-07-20T20:40:07;6.00;;;1.50;;
54201;SDS011;40108;53.152;5.844;2023-07-20T20:42:33;4.38;;;1.60;;
54201;SDS011;40108;53.152;5.844;2023-07-20T20:44:59;5.00;;;1.83;;
54201;SDS011;40108;53.152;5.844;2023-07-20T20:47:25;3.63;;;1.80;;
54201;SDS011;40108;53.152;5.844;2023-07-20T20:49:51;4.43;;;2.13;;
54201;SDS011;40108;53.152;5.844;2023-07-20T20:52:18;4.40;;;2.40;;
54201;SDS011;40108;53.152;5.844;2023-07-20T20:54:44;5.38;;;1.60;;
54201;SDS011;40108;53.152;5.844;2023-07-20T20:57:10;4.93;;;2.13;;
54201;SDS011;40108;53.152;5.844;2023-07-20T20:59:36;5.35;;;2.25;;
54201;SDS011;40108;53.152;5.844;2023-07-20T21:02:06;5.28;;;1.73;;
54201;SDS011;40108;53.152;5.844;2023-07-20T21:04:32;2.08;;;1.73;;
54201;SDS011;40108;53.152;5.844;2023-07-20T21:06:58;6.55;;;2.60;;
54201;SDS011;40108;53.152;5.844;2023-07-20T21:09:24;2.47;;;2.28;;
54201;SDS011;40108;53.152;5.844;2023-07-20T21:11:50;6.20;;;2.50;;
54201;SDS011;40108;53.152;5.844;2023-07-20T21:14:16;2.42;;;2.13;;
54201;SDS011;40108;53.152;5.844;2023-07-20T21:16:42;4.45;;;2.78;;
54201;SDS011;40108;53.152;5.844;2023-07-20T21:19:08;3.63;;;2.70;;
54201;SDS011;40108;53.152;5.844;2023-07-20T21:21:34;2.78;;;2.20;;
54201;SDS011;40108;53.152;5.844;2023-07-20T21:24:07;3.47;;;2.40;;
54201;SDS011;40108;53.152;5.844;2023-07-20T21:33:01;5.25;;;2.00;;
54201;SDS011;40108;53.152;5.844;2023-07-20T21:35:27;2.65;;;1.58;;
54201;SDS011;40108;53.152;5.844;2023-07-20T21:37:53;5.63;;;1.85;;
54201;SDS011;40108;53.152;5.844;2023-07-20T21:40:18;3.47;;;2.10;;
54201;SDS011;40108;53.152;5.844;2023-07-20T21:42:44;4.65;;;2.22;;
54201;SDS011;40108;53.152;5.844;2023-07-20T21:45:10;6.75;;;2.60;;
54201;SDS011;40108;53.152;5.844;2023-07-20T21:47:36;5.47;;;2.47;;
54201;SDS011;40108;53.152;5.844;2023-07-20T21:50:01;5.90;;;2.90;;
54201;SDS011;40108;53.152;5.844;2023-07-20T21:52:28;7.03;;;3.15;;
54201;SDS011;40108;53.152;5.844;2023-07-20T21:54:53;5.95;;;3.03;;
54201;SDS011;40108;53.152;5.844;2023-07-20T21:57:19;4.75;;;2.75;;
54201;SDS011;40108;53.152;5.844;2023-07-20T21:59:45;4.75;;;2.60;;
54201;SDS011;40108;53.152;5.844;2023-07-20T22:02:11;4.95;;;3.88;;
54201;SDS011;40108;53.152;5.844;2023-07-20T22:04:36;4.22;;;2.90;;
54201;SDS011;40108;53.152;5.844;2023-07-20T22:07:02;4.53;;;2.08;;
54201;SDS011;40108;53.152;5.844;2023-07-20T22:09:38;2.97;;;2.05;;
54201;SDS011;40108;53.152;5.844;2023-07-20T22:12:07;4.38;;;2.28;;